KPIB/PIB METAR and TAF weather

Enter ICAO airport designator
Station Type Date Time Source
KPIB METAR 2019/04/25 17:31 UTC NOAA

KPIB 251731Z AUTO 21005KT 9SM -RA OVC070 19/18 A2989 RMK AO2 LTG DSNT E AND SE TSE02B10E25 P0011


Station Type Date Time Source
KPIB Decoded METAR 2019/04/25 17:31 UTC NOAA

Hattiesburg/Laurel, Hattiesburg-Laurel Regional Airport, MS, United States (KPIB) 31-28N 089-20W
Apr 25, 2019 - 01:31 PM EDT / 2019.04.25 1731 UTC
Wind: from the SSW (210 degrees) at 6 MPH (5 KT):0
Visibility: 9 mile(s):0
Sky conditions: overcast
Weather: light rain; Lightning observed
Precipitation last hour: 0.11 inches
Temperature: 66 F (19 C)
Dew Point: 64 F (18 C)
Relative Humidity: 93%
Pressure (altimeter): 29.89 in. Hg (1012 hPa)
ob: KPIB 251731Z AUTO 21005KT 9SM -RA OVC070 19/18 A2989 RMK AO2 LTG DSNT E AND SE TSE02B10E25 P0011
cycle: 17

Station Type Date Time Source
KPIB TAF 2019/04/25 18:33 UTC NOAA

TAF KPIB 251731Z 2518/2618 22008KT 4SM TSRA BR BKN050CB
FM252000 18011KT P6SM VCTS BKN025CB
FM260200 23004KT P6SM VCSH BKN050
FM260700 28004KT P6SM BKN015
FM261600 34009KT P6SM FEW015 SCT250

Example: see airport list